Irenes Respect — V7LP2 — position and weather

sailwx.info

Track history (hours):
 
Tides and Currents Weather Stations Pressure Air Temp Water Temp Dewpoint Dewpoint Depression Visibility Wind Speed Wind Dir Waves Ship Positions

Irenes Respect

Last reported at 2018-Feb-22 08:52 UTC. Time now 2018-Feb-25 13:44 UTC.
Position N 01°18' E 103°21'.

Length 222 m; draft 8.7 m.

Type: Ship (hazmat cat A). MMSI: 538007005.

Date/timePositionNaut miles runAvg speedWind from/ knotsBaromVisibWave heightAir tempDewpointWater temp
2018-Feb-22 08:52N 01°18' E 103°21'410.3
2018-Feb-22 08:30N 01°16' E 103°23'5 9.9
2018-Feb-22 08:00N 01°14' E 103°28'5 9.7
2018-Feb-22 07:30N 01°12' E 103°33'611.1
2018-Feb-22 06:59N 01°12' E 103°39'4 8.7
2018-Feb-22 06:30N 01°14' E 103°42'510.6
2018-Feb-22 06:00N 01°16' E 103°47'0 0.8
2018-Feb-22 05:29N 01°16' E 103°47'0 0.0
2018-Feb-22 04:56N 01°16' E 103°47'0 0.0
2018-Feb-22 04:29N 01°16' E 103°47'0 0.0
2018-Feb-22 03:59N 01°16' E 103°47'0 0.0
2018-Feb-22 03:29N 01°16' E 103°47'0 0.0
2018-Feb-22 02:59N 01°16' E 103°47'0 0.0
2018-Feb-22 02:29N 01°16' E 103°47'0 0.0
2018-Feb-22 01:59N 01°16' E 103°47'0 0.0
2018-Feb-22 01:26N 01°16' E 103°47'0 0.0
2018-Feb-22 00:56N 01°16' E 103°47'0 0.0
2018-Feb-22 00:26N 01°16' E 103°47'0 0.0
2018-Feb-21 23:56N 01°16' E 103°47'0 0.0
2018-Feb-21 23:23N 01°16' E 103°47'0 0.0
2018-Feb-21 22:59N 01°16' E 103°47'0 0.0
2018-Feb-21 22:20N 01°16' E 103°47'0 0.0
2018-Feb-21 21:56N 01°16' E 103°47'0 0.0
2018-Feb-21 21:29N 01°16' E 103°47'0 0.0
2018-Feb-21 20:56N 01°16' E 103°47'0 0.0
2018-Feb-21 20:26N 01°16' E 103°47'0 0.0
2018-Feb-21 19:59N 01°16' E 103°47'0 0.0
2018-Feb-21 19:29N 01°16' E 103°47'0 0.0
2018-Feb-21 19:00N 01°16' E 103°47'1 1.7
2018-Feb-21 18:30N 01°15' E 103°47'2 2.9
2018-Feb-21 17:58N 01°15' E 103°48'0 0.0
2018-Feb-21 17:28N 01°15' E 103°48'0 0.0
2018-Feb-21 16:55N 01°15' E 103°48'0 0.0
2018-Feb-21 16:13N 01°15' E 103°48'0 0.0
2018-Feb-21 15:52N 01°15' E 103°48'0 0.0
2018-Feb-21 15:25N 01°15' E 103°48'0 0.0
2018-Feb-21 14:58N 01°15' E 103°48'0 0.0
2018-Feb-21 14:19N 01°15' E 103°48'0 0.0
2018-Feb-21 13:55N 01°15' E 103°48'0 0.0
2018-Feb-21 13:25N 01°15' E 103°48'0 0.0
2018-Feb-21 12:49N 01°15' E 103°48'0 0.0
2018-Feb-21 12:22N 01°15' E 103°48'0 0.1
2018-Feb-21 11:55N 01°15' E 103°48'0 0.1
2018-Feb-21 11:10N 01°15' E 103°48'0 0.0
2018-Feb-21 10:58N 01°15' E 103°48'0 0.1
2018-Feb-21 10:25N 01°15' E 103°48'0 0.1
2018-Feb-21 09:58N 01°15' E 103°48'0 0.0
2018-Feb-21 09:30N 01°15' E 103°48'1 1.8
2018-Feb-21 09:00N 01°14' E 103°48'4 8.7
2018-Feb-21 08:30N 01°14' E 103°43'611.8
2018-Feb-21 08:00N 01°12' E 103°38'4 8.1
2018-Feb-21 07:31N 01°11' E 103°34'5 9.4
2018-Feb-21 06:58N 01°10' E 103°29'612.6
2018-Feb-21 06:30N 01°12' E 103°24'815.7
2018-Feb-21 06:00N 01°17' E 103°17'  
Track history (hours):
 
Tides and Currents Weather Stations Pressure Air Temp Water Temp Dewpoint Dewpoint Depression Visibility Wind Speed Wind Dir Waves Ship Positions

Irenes Respect

Last reported at 2018-Feb-22 08:52 UTC. Time now 2018-Feb-25 13:44 UTC.
Position N 01°18' E 103°21'.

Length 222 m; draft 8.7 m.

Type: Ship (hazmat cat A). MMSI: 538007005.

Date/timePositionNaut miles runAvg speedWind from/ knotsBaromVisibWave heightAir tempDewpointWater temp
2018-Feb-22 08:52N 01°18' E 103°21'410.3
2018-Feb-22 08:30N 01°16' E 103°23'5 9.9
2018-Feb-22 08:00N 01°14' E 103°28'5 9.7
2018-Feb-22 07:30N 01°12' E 103°33'611.1
2018-Feb-22 06:59N 01°12' E 103°39'4 8.7
2018-Feb-22 06:30N 01°14' E 103°42'510.6
2018-Feb-22 06:00N 01°16' E 103°47'0 0.8
2018-Feb-22 05:29N 01°16' E 103°47'0 0.0
2018-Feb-22 04:56N 01°16' E 103°47'0 0.0
2018-Feb-22 04:29N 01°16' E 103°47'0 0.0
2018-Feb-22 03:59N 01°16' E 103°47'0 0.0
2018-Feb-22 03:29N 01°16' E 103°47'0 0.0
2018-Feb-22 02:59N 01°16' E 103°47'0 0.0
2018-Feb-22 02:29N 01°16' E 103°47'0 0.0
2018-Feb-22 01:59N 01°16' E 103°47'0 0.0
2018-Feb-22 01:26N 01°16' E 103°47'0 0.0
2018-Feb-22 00:56N 01°16' E 103°47'0 0.0
2018-Feb-22 00:26N 01°16' E 103°47'0 0.0
2018-Feb-21 23:56N 01°16' E 103°47'0 0.0
2018-Feb-21 23:23N 01°16' E 103°47'0 0.0
2018-Feb-21 22:59N 01°16' E 103°47'0 0.0
2018-Feb-21 22:20N 01°16' E 103°47'0 0.0
2018-Feb-21 21:56N 01°16' E 103°47'0 0.0
2018-Feb-21 21:29N 01°16' E 103°47'0 0.0
2018-Feb-21 20:56N 01°16' E 103°47'0 0.0
2018-Feb-21 20:26N 01°16' E 103°47'0 0.0
2018-Feb-21 19:59N 01°16' E 103°47'0 0.0
2018-Feb-21 19:29N 01°16' E 103°47'0 0.0
2018-Feb-21 19:00N 01°16' E 103°47'1 1.7
2018-Feb-21 18:30N 01°15' E 103°47'2 2.9
2018-Feb-21 17:58N 01°15' E 103°48'0 0.0
2018-Feb-21 17:28N 01°15' E 103°48'0 0.0
2018-Feb-21 16:55N 01°15' E 103°48'0 0.0
2018-Feb-21 16:13N 01°15' E 103°48'0 0.0
2018-Feb-21 15:52N 01°15' E 103°48'0 0.0
2018-Feb-21 15:25N 01°15' E 103°48'0 0.0
2018-Feb-21 14:58N 01°15' E 103°48'0 0.0
2018-Feb-21 14:19N 01°15' E 103°48'0 0.0
2018-Feb-21 13:55N 01°15' E 103°48'0 0.0
2018-Feb-21 13:25N 01°15' E 103°48'0 0.0
2018-Feb-21 12:49N 01°15' E 103°48'0 0.0
2018-Feb-21 12:22N 01°15' E 103°48'0 0.1
2018-Feb-21 11:55N 01°15' E 103°48'0 0.1
2018-Feb-21 11:10N 01°15' E 103°48'0 0.0
2018-Feb-21 10:58N 01°15' E 103°48'0 0.1
2018-Feb-21 10:25N 01°15' E 103°48'0 0.1
2018-Feb-21 09:58N 01°15' E 103°48'0 0.0
2018-Feb-21 09:30N 01°15' E 103°48'1 1.8
2018-Feb-21 09:00N 01°14' E 103°48'4 8.7
2018-Feb-21 08:30N 01°14' E 103°43'611.8
2018-Feb-21 08:00N 01°12' E 103°38'4 8.1
2018-Feb-21 07:31N 01°11' E 103°34'5 9.4
2018-Feb-21 06:58N 01°10' E 103°29'612.6
2018-Feb-21 06:30N 01°12' E 103°24'815.7
2018-Feb-21 06:00N 01°17' E 103°17'  

Dump ship's entire track history